sensor_id;sensor_type;location;lat;lon;timestamp;pressure;altitude;pressure_sealevel;temperature;humidity
58102;BME280;52034;51.926;6.320;2022-12-17T00:01:04;102240.06;;;-0.77;92.59
58102;BME280;52034;51.926;6.320;2022-12-17T00:02:23;102244.13;;;-0.71;92.24
58102;BME280;52034;51.926;6.320;2022-12-17T00:03:42;102244.13;;;-0.71;91.39
58102;BME280;52034;51.926;6.320;2022-12-17T00:05:01;102244.41;;;-0.68;91.44
58102;BME280;52034;51.926;6.320;2022-12-17T00:06:20;102239.03;;;-0.79;91.96
58102;BME280;52034;51.926;6.320;2022-12-17T00:07:39;102249.88;;;-0.73;91.79
58102;BME280;52034;51.926;6.320;2022-12-17T00:08:58;102250.69;;;-0.83;91.41
58102;BME280;52034;51.926;6.320;2022-12-17T00:10:17;102250.75;;;-0.92;91.54
58102;BME280;52034;51.926;6.320;2022-12-17T00:11:36;102249.44;;;-0.78;92.56
58102;BME280;52034;51.926;6.320;2022-12-17T00:12:55;102247.16;;;-0.75;91.48
58102;BME280;52034;51.926;6.320;2022-12-17T00:14:14;102252.59;;;-0.72;91.58
58102;BME280;52034;51.926;6.320;2022-12-17T00:15:33;102240.41;;;-0.83;91.90
58102;BME280;52034;51.926;6.320;2022-12-17T00:16:53;102245.66;;;-0.73;92.76
58102;BME280;52034;51.926;6.320;2022-12-17T00:18:12;102244.13;;;-0.71;92.02
58102;BME280;52034;51.926;6.320;2022-12-17T00:19:31;102242.03;;;-0.75;92.81
58102;BME280;52034;51.926;6.320;2022-12-17T00:20:54;102244.31;;;-0.78;92.28
58102;BME280;52034;51.926;6.320;2022-12-17T00:22:13;102249.44;;;-0.78;91.40
58102;BME280;52034;51.926;6.320;2022-12-17T00:23:36;102248.72;;;-0.86;92.71
58102;BME280;52034;51.926;6.320;2022-12-17T00:24:55;102256.66;;;-1.02;91.98
58102;BME280;52034;51.926;6.320;2022-12-17T00:26:14;102249.44;;;-1.06;93.50
58102;BME280;52034;51.926;6.320;2022-12-17T00:27:33;102259.53;;;-0.98;92.72
58102;BME280;52034;51.926;6.320;2022-12-17T00:28:52;102253.56;;;-1.16;92.68
58102;BME280;52034;51.926;6.320;2022-12-17T00:30:11;102263.88;;;-1.25;94.13
58102;BME280;52034;51.926;6.320;2022-12-17T00:31:30;102254.22;;;-1.00;92.91
58102;BME280;52034;51.926;6.320;2022-12-17T00:32:49;102260.28;;;-0.99;92.83
58102;BME280;52034;51.926;6.320;2022-12-17T00:34:08;102261.91;;;-0.91;93.03
58102;BME280;52034;51.926;6.320;2022-12-17T00:35:28;102253.44;;;-0.90;93.26
58102;BME280;52034;51.926;6.320;2022-12-17T00:36:47;102261.19;;;-0.99;92.31
58102;BME280;52034;51.926;6.320;2022-12-17T00:38:05;102259.28;;;-1.10;93.59
58102;BME280;52034;51.926;6.320;2022-12-17T00:39:24;102263.25;;;-0.95;93.65
58102;BME280;52034;51.926;6.320;2022-12-17T00:40:43;102252.13;;;-0.95;93.25
58102;BME280;52034;51.926;6.320;2022-12-17T00:42:07;102258.28;;;-1.21;93.00
58102;BME280;52034;51.926;6.320;2022-12-17T00:43:26;102256.84;;;-1.45;94.21
58102;BME280;52034;51.926;6.320;2022-12-17T00:44:45;102254.41;;;-1.35;95.21
58102;BME280;52034;51.926;6.320;2022-12-17T00:46:04;102251.22;;;-1.32;94.78
58102;BME280;52034;51.926;6.320;2022-12-17T00:47:23;102258.03;;;-1.33;94.52
58102;BME280;52034;51.926;6.320;2022-12-17T00:48:44;102256.50;;;-1.31;94.12
58102;BME280;52034;51.926;6.320;2022-12-17T00:50:03;102265.06;;;-1.22;93.54
58102;BME280;52034;51.926;6.320;2022-12-17T00:51:22;102267.06;;;-1.28;94.69
58102;BME280;52034;51.926;6.320;2022-12-17T00:52:41;102273.41;;;-1.33;94.88
58102;BME280;52034;51.926;6.320;2022-12-17T00:54:00;102279.56;;;-1.31;94.25
58102;BME280;52034;51.926;6.320;2022-12-17T00:55:19;102275.72;;;-1.54;95.37
58102;BME280;52034;51.926;6.320;2022-12-17T00:56:38;102278.47;;;-1.61;94.91
58102;BME280;52034;51.926;6.320;2022-12-17T00:57:57;102268.03;;;-1.54;95.97
58102;BME280;52034;51.926;6.320;2022-12-17T00:59:16;102271.63;;;-1.43;95.59
58102;BME280;52034;51.926;6.320;2022-12-17T01:00:36;102270.09;;;-1.32;94.57
58102;BME280;52034;51.926;6.320;2022-12-17T01:01:55;102278.56;;;-1.42;94.70
58102;BME280;52034;51.926;6.320;2022-12-17T01:03:14;102273.06;;;-1.73;95.22
58102;BME280;52034;51.926;6.320;2022-12-17T01:04:33;102272.78;;;-1.85;96.01
58102;BME280;52034;51.926;6.320;2022-12-17T01:05:52;102269.09;;;-1.60;95.07
58102;BME280;52034;51.926;6.320;2022-12-17T01:07:12;102279.66;;;-1.57;95.82
58102;BME280;52034;51.926;6.320;2022-12-17T01:08:31;102285.53;;;-1.58;95.06
58102;BME280;52034;51.926;6.320;2022-12-17T01:09:50;102284.59;;;-1.41;94.79
58102;BME280;52034;51.926;6.320;2022-12-17T01:11:09;102284.00;;;-1.56;95.92
58102;BME280;52034;51.926;6.320;2022-12-17T01:12:33;102284.91;;;-1.47;95.57
58102;BME280;52034;51.926;6.320;2022-12-17T01:13:52;102286.44;;;-1.49;95.44
58102;BME280;52034;51.926;6.320;2022-12-17T01:15:11;102282.91;;;-1.32;94.48
58102;BME280;52034;51.926;6.320;2022-12-17T01:16:31;102286.38;;;-1.31;94.20
58102;BME280;52034;51.926;6.320;2022-12-17T01:17:50;102285.78;;;-1.38;94.42
58102;BME280;52034;51.926;6.320;2022-12-17T01:19:11;102290.13;;;-1.28;94.39
58102;BME280;52034;51.926;6.320;2022-12-17T01:20:30;102290.75;;;-1.30;93.54
58102;BME280;52034;51.926;6.320;2022-12-17T01:21:49;102287.72;;;-1.26;93.49
58102;BME280;52034;51.926;6.320;2022-12-17T01:23:08;102295.09;;;-1.29;93.67
58102;BME280;52034;51.926;6.320;2022-12-17T01:24:27;102292.72;;;-1.37;94.12
58102;BME280;52034;51.926;6.320;2022-12-17T01:25:53;102294.59;;;-1.62;94.70
58102;BME280;52034;51.926;6.320;2022-12-17T01:27:13;102290.69;;;-1.85;95.86
58102;BME280;52034;51.926;6.320;2022-12-17T01:28:32;102292.16;;;-1.60;95.63
58102;BME280;52034;51.926;6.320;2022-12-17T01:29:51;102295.94;;;-1.65;96.02
58102;BME280;52034;51.926;6.320;2022-12-17T01:31:11;102306.78;;;-1.68;94.91
58102;BME280;52034;51.926;6.320;2022-12-17T01:32:30;102303.81;;;-1.81;96.54
58102;BME280;52034;51.926;6.320;2022-12-17T01:33:48;102305.47;;;-1.91;96.19
58102;BME280;52034;51.926;6.320;2022-12-17T01:35:07;102306.38;;;-1.81;96.02
58102;BME280;52034;51.926;6.320;2022-12-17T01:36:26;102306.03;;;-1.58;96.31
58102;BME280;52034;51.926;6.320;2022-12-17T01:37:45;102301.63;;;-1.42;96.26
58102;BME280;52034;51.926;6.320;2022-12-17T01:39:04;102303.91;;;-1.45;95.43
58102;BME280;52034;51.926;6.320;2022-12-17T01:40:23;102317.47;;;-1.37;94.51
58102;BME280;52034;51.926;6.320;2022-12-17T01:41:42;102315.38;;;-1.41;95.18
58102;BME280;52034;51.926;6.320;2022-12-17T01:43:01;102319.09;;;-1.38;94.54
58102;BME280;52034;51.926;6.320;2022-12-17T01:44:42;102327.25;;;-1.42;95.30
58102;BME280;52034;51.926;6.320;2022-12-17T01:46:03;102322.00;;;-1.52;95.17
58102;BME280;52034;51.926;6.320;2022-12-17T01:47:26;102322.88;;;-1.43;95.76
58102;BME280;52034;51.926;6.320;2022-12-17T01:48:48;102328.19;;;-1.59;95.35
58102;BME280;52034;51.926;6.320;2022-12-17T01:50:08;102322.66;;;-1.81;96.20
58102;BME280;52034;51.926;6.320;2022-12-17T01:51:28;102326.41;;;-1.86;96.19
58102;BME280;52034;51.926;6.320;2022-12-17T01:52:50;102322.34;;;-1.84;95.81
58102;BME280;52034;51.926;6.320;2022-12-17T01:54:13;102326.13;;;-1.89;97.21
58102;BME280;52034;51.926;6.320;2022-12-17T01:55:32;102338.03;;;-1.81;96.58
58102;BME280;52034;51.926;6.320;2022-12-17T01:56:58;102336.47;;;-1.61;96.20
58102;BME280;52034;51.926;6.320;2022-12-17T01:58:17;102342.50;;;-1.52;95.68
58102;BME280;52034;51.926;6.320;2022-12-17T02:00:58;102334.19;;;-1.41;94.67
58102;BME280;52034;51.926;6.320;2022-12-17T02:02:18;102335.09;;;-1.40;94.88
58102;BME280;52034;51.926;6.320;2022-12-17T02:03:36;102345.06;;;-1.43;94.50
58102;BME280;52034;51.926;6.320;2022-12-17T02:04:55;102339.75;;;-1.36;94.81
58102;BME280;52034;51.926;6.320;2022-12-17T02:06:25;102347.00;;;-1.41;94.46
58102;BME280;52034;51.926;6.320;2022-12-17T02:08:04;102352.44;;;-1.38;94.71
58102;BME280;52034;51.926;6.320;2022-12-17T02:09:41;102348.09;;;-1.47;94.60
58102;BME280;52034;51.926;6.320;2022-12-17T02:11:20;102349.00;;;-1.64;94.17
58102;BME280;52034;51.926;6.320;2022-12-17T02:12:49;102345.53;;;-1.56;94.28
58102;BME280;52034;51.926;6.320;2022-12-17T02:14:30;102352.78;;;-1.61;93.68
58102;BME280;52034;51.926;6.320;2022-12-17T02:16:10;102355.03;;;-1.55;94.00
58102;BME280;52034;51.926;6.320;2022-12-17T02:17:39;102331.22;;;-1.63;93.76
58102;BME280;52034;51.926;6.320;2022-12-17T02:19:05;102342.06;;;-1.48;93.35
58102;BME280;52034;51.926;6.320;2022-12-17T02:20:34;102341.88;;;-1.41;92.60
58102;BME280;52034;51.926;6.320;2022-12-17T02:21:58;102340.38;;;-1.47;92.53
58102;BME280;52034;51.926;6.320;2022-12-17T02:25:14;102342.97;;;-1.56;93.27
58102;BME280;52034;51.926;6.320;2022-12-17T02:26:46;102339.03;;;-1.53;92.76
58102;BME280;52034;51.926;6.320;2022-12-17T02:28:06;102344.31;;;-1.51;94.07
58102;BME280;52034;51.926;6.320;2022-12-17T02:29:28;102344.78;;;-1.55;93.03
58102;BME280;52034;51.926;6.320;2022-12-17T02:30:49;102338.44;;;-1.50;93.27
58102;BME280;52034;51.926;6.320;2022-12-17T02:32:11;102349.75;;;-1.48;93.21
58102;BME280;52034;51.926;6.320;2022-12-17T02:33:31;102344.31;;;-1.51;92.33
58102;BME280;52034;51.926;6.320;2022-12-17T02:34:50;102339.66;;;-1.46;93.16
58102;BME280;52034;51.926;6.320;2022-12-17T02:36:10;102347.75;;;-1.42;93.24
58102;BME280;52034;51.926;6.320;2022-12-17T02:37:29;102342.50;;;-1.52;92.43
58102;BME280;52034;51.926;6.320;2022-12-17T02:38:47;102340.34;;;-1.39;92.91
58102;BME280;52034;51.926;6.320;2022-12-17T02:40:09;102343.38;;;-1.34;92.19
58102;BME280;52034;51.926;6.320;2022-12-17T02:41:33;102339.00;;;-1.35;92.59
58102;BME280;52034;51.926;6.320;2022-12-17T02:42:54;102352.44;;;-1.38;92.55
58102;BME280;52034;51.926;6.320;2022-12-17T02:44:16;102343.19;;;-1.27;92.61
58102;BME280;52034;51.926;6.320;2022-12-17T02:45:36;102346.34;;;-1.21;92.70
58102;BME280;52034;51.926;6.320;2022-12-17T02:46:56;102339.13;;;-1.25;92.26
58102;BME280;52034;51.926;6.320;2022-12-17T02:48:17;102351.94;;;-1.25;91.45
58102;BME280;52034;51.926;6.320;2022-12-17T02:49:37;102346.09;;;-1.32;92.51
58102;BME280;52034;51.926;6.320;2022-12-17T02:50:57;102353.63;;;-1.34;92.15
58102;BME280;52034;51.926;6.320;2022-12-17T02:52:18;102350.78;;;-1.46;91.42
58102;BME280;52034;51.926;6.320;2022-12-17T02:53:42;102353.16;;;-1.39;92.25
58102;BME280;52034;51.926;6.320;2022-12-17T02:55:02;102347.91;;;-1.40;92.36
58102;BME280;52034;51.926;6.320;2022-12-17T02:56:23;102355.59;;;-1.31;91.73
58102;BME280;52034;51.926;6.320;2022-12-17T02:57:43;102355.56;;;-1.23;92.35
58102;BME280;52034;51.926;6.320;2022-12-17T02:59:02;102356.34;;;-1.32;91.22
58102;BME280;52034;51.926;6.320;2022-12-17T03:00:46;102365.84;;;-1.31;91.73
58102;BME280;52034;51.926;6.320;2022-12-17T03:02:05;102359.94;;;-1.22;91.19
58102;BME280;52034;51.926;6.320;2022-12-17T03:03:26;102358.28;;;-1.21;91.24
58102;BME280;52034;51.926;6.320;2022-12-17T03:04:45;102361.75;;;-1.21;92.41
58102;BME280;52034;51.926;6.320;2022-12-17T03:06:04;102365.97;;;-1.21;91.94
58102;BME280;52034;51.926;6.320;2022-12-17T03:07:23;102374.56;;;-1.29;91.09
58102;BME280;52034;51.926;6.320;2022-12-17T03:08:42;102373.81;;;-1.28;91.89
58102;BME280;52034;51.926;6.320;2022-12-17T03:10:01;102376.81;;;-1.15;91.19
58102;BME280;52034;51.926;6.320;2022-12-17T03:11:20;102374.56;;;-1.12;91.29
58102;BME280;52034;51.926;6.320;2022-12-17T03:12:39;102369.25;;;-1.13;92.05
58102;BME280;52034;51.926;6.320;2022-12-17T03:13:58;102378.94;;;-1.20;91.16
58102;BME280;52034;51.926;6.320;2022-12-17T03:15:17;102382.59;;;-1.35;91.59
58102;BME280;52034;51.926;6.320;2022-12-17T03:16:37;102380.16;;;-1.33;91.78
58102;BME280;52034;51.926;6.320;2022-12-17T03:17:56;102374.88;;;-1.26;91.54
58102;BME280;52034;51.926;6.320;2022-12-17T03:19:15;102377.72;;;-1.14;91.67
58102;BME280;52034;51.926;6.320;2022-12-17T03:20:34;102375.03;;;-1.25;91.19
58102;BME280;52034;51.926;6.320;2022-12-17T03:21:53;102370.31;;;-1.20;91.16
58102;BME280;52034;51.926;6.320;2022-12-17T03:23:12;102377.28;;;-1.19;91.78
58102;BME280;52034;51.926;6.320;2022-12-17T03:24:31;102371.69;;;-1.15;90.87
58102;BME280;52034;51.926;6.320;2022-12-17T03:25:50;102371.41;;;-1.18;90.93
58102;BME280;52034;51.926;6.320;2022-12-17T03:27:10;102368.81;;;-1.09;91.15
58102;BME280;52034;51.926;6.320;2022-12-17T03:28:29;102366.88;;;-1.12;90.26
58102;BME280;52034;51.926;6.320;2022-12-17T03:29:48;102379.81;;;-1.10;91.18
58102;BME280;52034;51.926;6.320;2022-12-17T03:31:07;102372.44;;;-1.16;91.53
58102;BME280;52034;51.926;6.320;2022-12-17T03:32:26;102371.06;;;-1.12;90.90
58102;BME280;52034;51.926;6.320;2022-12-17T03:33:45;102375.91;;;-1.24;91.43
58102;BME280;52034;51.926;6.320;2022-12-17T03:35:05;102371.66;;;-1.06;90.84
58102;BME280;52034;51.926;6.320;2022-12-17T03:36:24;102371.25;;;-1.20;90.77
58102;BME280;52034;51.926;6.320;2022-12-17T03:37:43;102374.16;;;-1.34;91.58
58102;BME280;52034;51.926;6.320;2022-12-17T03:39:02;102371.28;;;-1.55;92.44
58102;BME280;52034;51.926;6.320;2022-12-17T03:40:21;102374.75;;;-1.28;91.97
58102;BME280;52034;51.926;6.320;2022-12-17T03:41:40;102379.25;;;-1.25;91.79
58102;BME280;52034;51.926;6.320;2022-12-17T03:43:05;102377.41;;;-1.09;91.57
58102;BME280;52034;51.926;6.320;2022-12-17T03:44:24;102369.75;;;-1.26;90.13
58102;BME280;52034;51.926;6.320;2022-12-17T03:45:50;102367.28;;;-1.16;90.99
58102;BME280;52034;51.926;6.320;2022-12-17T03:47:09;102378.44;;;-1.07;90.27
58102;BME280;52034;51.926;6.320;2022-12-17T03:48:28;102383.88;;;-1.04;90.90
58102;BME280;52034;51.926;6.320;2022-12-17T03:49:47;102377.22;;;-1.02;90.74
58102;BME280;52034;51.926;6.320;2022-12-17T03:51:06;102385.69;;;-1.03;90.13
58102;BME280;52034;51.926;6.320;2022-12-17T03:52:25;102378.63;;;-1.14;90.91
58102;BME280;52034;51.926;6.320;2022-12-17T03:53:44;102376.47;;;-1.01;89.96
58102;BME280;52034;51.926;6.320;2022-12-17T03:55:03;102383.13;;;-1.03;89.83
58102;BME280;52034;51.926;6.320;2022-12-17T03:56:23;102378.66;;;-1.31;90.38
58102;BME280;52034;51.926;6.320;2022-12-17T03:57:42;102376.81;;;-1.15;91.72
58102;BME280;52034;51.926;6.320;2022-12-17T03:59:01;102374.56;;;-1.12;89.90
58102;BME280;52034;51.926;6.320;2022-12-17T04:00:20;102384.34;;;-1.16;90.66
58102;BME280;52034;51.926;6.320;2022-12-17T04:01:39;102389.03;;;-1.12;89.67
58102;BME280;52034;51.926;6.320;2022-12-17T04:02:58;102382.25;;;-1.12;90.20
58102;BME280;52034;51.926;6.320;2022-12-17T04:04:17;102384.53;;;-1.24;90.94
58102;BME280;52034;51.926;6.320;2022-12-17T04:05:38;102382.53;;;-1.18;90.79
58102;BME280;52034;51.926;6.320;2022-12-17T04:06:56;102381.38;;;-1.21;90.55
58102;BME280;52034;51.926;6.320;2022-12-17T04:08:15;102384.06;;;-1.28;91.43
58102;BME280;52034;51.926;6.320;2022-12-17T04:09:34;102391.75;;;-1.20;90.41
58102;BME280;52034;51.926;6.320;2022-12-17T04:10:53;102389.34;;;-1.18;91.34
58102;BME280;52034;51.926;6.320;2022-12-17T04:12:12;102377.69;;;-1.06;91.08
58102;BME280;52034;51.926;6.320;2022-12-17T04:13:31;102383.56;;;-0.98;90.77
58102;BME280;52034;51.926;6.320;2022-12-17T04:14:50;102382.50;;;-1.00;89.78
58102;BME280;52034;51.926;6.320;2022-12-17T04:16:12;102380.38;;;-0.95;89.26
58102;BME280;52034;51.926;6.320;2022-12-17T04:17:31;102384.16;;;-0.92;89.55
58102;BME280;52034;51.926;6.320;2022-12-17T04:18:50;102392.72;;;-0.91;89.05
58102;BME280;52034;51.926;6.320;2022-12-17T04:20:10;102392.72;;;-0.91;90.29
58102;BME280;52034;51.926;6.320;2022-12-17T04:21:29;102390.91;;;-0.92;90.51
58102;BME280;52034;51.926;6.320;2022-12-17T04:22:47;102389.09;;;-0.85;89.59
58102;BME280;52034;51.926;6.320;2022-12-17T04:24:06;102384.84;;;-0.84;89.26
58102;BME280;52034;51.926;6.320;2022-12-17T04:25:25;102384.41;;;-0.80;90.12
58102;BME280;52034;51.926;6.320;2022-12-17T04:26:44;102380.72;;;-1.01;90.11
58102;BME280;52034;51.926;6.320;2022-12-17T04:28:03;102384.75;;;-0.94;90.22
58102;BME280;52034;51.926;6.320;2022-12-17T04:29:22;102387.31;;;-0.94;89.48
58102;BME280;52034;51.926;6.320;2022-12-17T04:30:41;102394.06;;;-0.86;89.25
58102;BME280;52034;51.926;6.320;2022-12-17T04:32:00;102384.75;;;-0.94;90.37
58102;BME280;52034;51.926;6.320;2022-12-17T04:33:19;102392.44;;;-0.94;90.11
58102;BME280;52034;51.926;6.320;2022-12-17T04:34:38;102388.34;;;-0.92;89.81
58102;BME280;52034;51.926;6.320;2022-12-17T04:36:02;102394.81;;;-0.87;90.10
58102;BME280;52034;51.926;6.320;2022-12-17T04:37:21;102393.47;;;-0.92;89.14
58102;BME280;52034;51.926;6.320;2022-12-17T04:38:40;102386.41;;;-0.95;89.56
58102;BME280;52034;51.926;6.320;2022-12-17T04:39:59;102395.03;;;-0.94;89.30
58102;BME280;52034;51.926;6.320;2022-12-17T04:41:18;102390.78;;;-0.94;89.95
58102;BME280;52034;51.926;6.320;2022-12-17T04:42:37;102391.84;;;-1.01;89.29
58102;BME280;52034;51.926;6.320;2022-12-17T04:43:56;102389.88;;;-0.94;89.18
58102;BME280;52034;51.926;6.320;2022-12-17T04:45:15;102397.59;;;-0.94;90.41
58102;BME280;52034;51.926;6.320;2022-12-17T04:46:34;102406.38;;;-1.10;89.92
58102;BME280;52034;51.926;6.320;2022-12-17T04:48:04;102406.41;;;-1.27;91.12
58102;BME280;52034;51.926;6.320;2022-12-17T04:49:23;102405.50;;;-1.37;91.92
58102;BME280;52034;51.926;6.320;2022-12-17T04:50:41;102400.63;;;-1.16;91.45
58102;BME280;52034;51.926;6.320;2022-12-17T04:52:00;102404.13;;;-1.24;90.55
58102;BME280;52034;51.926;6.320;2022-12-17T04:53:19;102402.47;;;-1.24;91.47
58102;BME280;52034;51.926;6.320;2022-12-17T04:54:38;102405.19;;;-1.31;91.06
58102;BME280;52034;51.926;6.320;2022-12-17T04:55:57;102407.47;;;-1.25;91.99
58102;BME280;52034;51.926;6.320;2022-12-17T04:57:16;102407.28;;;-1.18;90.83
58102;BME280;52034;51.926;6.320;2022-12-17T04:58:35;102403.03;;;-1.09;90.29
58102;BME280;52034;51.926;6.320;2022-12-17T04:59:54;102400.47;;;-1.09;90.92
58102;BME280;52034;51.926;6.320;2022-12-17T05:01:13;102399.28;;;-1.04;91.44
58102;BME280;52034;51.926;6.320;2022-12-17T05:02:32;102386.78;;;-1.09;90.78
58102;BME280;52034;51.926;6.320;2022-12-17T05:03:51;102398.94;;;-0.98;89.84
58102;BME280;52034;51.926;6.320;2022-12-17T05:05:10;102401.50;;;-0.98;89.10
58102;BME280;52034;51.926;6.320;2022-12-17T05:06:29;102404.53;;;-0.93;90.16
58102;BME280;52034;51.926;6.320;2022-12-17T05:07:52;102410.09;;;-0.97;90.80
58102;BME280;52034;51.926;6.320;2022-12-17T05:09:11;102420.81;;;-1.02;90.64
58102;BME280;52034;51.926;6.320;2022-12-17T05:10:30;102415.69;;;-1.02;90.13
58102;BME280;52034;51.926;6.320;2022-12-17T05:11:49;102418.56;;;-0.98;90.06
58102;BME280;52034;51.926;6.320;2022-12-17T05:13:08;102405.41;;;-0.93;89.18
58102;BME280;52034;51.926;6.320;2022-12-17T05:14:27;102409.94;;;-0.90;90.52
58102;BME280;52034;51.926;6.320;2022-12-17T05:15:46;102411.16;;;-0.87;90.36
58102;BME280;52034;51.926;6.320;2022-12-17T05:17:05;102408.13;;;-0.91;89.02
58102;BME280;52034;51.926;6.320;2022-12-17T05:18:24;102413.44;;;-0.98;90.21
58102;BME280;52034;51.926;6.320;2022-12-17T05:19:43;102421.75;;;-1.10;90.09
58102;BME280;52034;51.926;6.320;2022-12-17T05:21:02;102414.47;;;-0.96;89.73
58102;BME280;52034;51.926;6.320;2022-12-17T05:22:21;102411.75;;;-0.89;90.03
58102;BME280;52034;51.926;6.320;2022-12-17T05:23:40;102412.03;;;-0.86;90.25
58102;BME280;52034;51.926;6.320;2022-12-17T05:24:59;102411.91;;;-0.88;89.46
58102;BME280;52034;51.926;6.320;2022-12-17T05:26:22;102415.50;;;-0.86;89.70
58102;BME280;52034;51.926;6.320;2022-12-17T05:27:41;102418.06;;;-0.86;89.78
58102;BME280;52034;51.926;6.320;2022-12-17T05:29:00;102414.13;;;-0.82;89.24
58102;BME280;52034;51.926;6.320;2022-12-17T05:30:19;102416.56;;;-0.83;89.99
58102;BME280;52034;51.926;6.320;2022-12-17T05:31:38;102417.44;;;-0.83;89.42
58102;BME280;52034;51.926;6.320;2022-12-17T05:33:01;102414.00;;;-0.83;89.27
58102;BME280;52034;51.926;6.320;2022-12-17T05:34:20;102413.84;;;-0.85;90.44
58102;BME280;52034;51.926;6.320;2022-12-17T05:35:39;102414.75;;;-0.85;89.93
58102;BME280;52034;51.926;6.320;2022-12-17T05:36:58;102416.97;;;-0.79;89.07
58102;BME280;52034;51.926;6.320;2022-12-17T05:38:18;102411.44;;;-0.83;88.81
58102;BME280;52034;51.926;6.320;2022-12-17T05:39:36;102420.47;;;-0.87;89.80
58102;BME280;52034;51.926;6.320;2022-12-17T05:40:57;102415.03;;;-0.81;89.41
58102;BME280;52034;51.926;6.320;2022-12-17T05:42:16;102420.34;;;-0.80;89.43
58102;BME280;52034;51.926;6.320;2022-12-17T05:43:35;102419.06;;;-0.75;88.95
58102;BME280;52034;51.926;6.320;2022-12-17T05:44:54;102423.19;;;-0.77;89.00
58102;BME280;52034;51.926;6.320;2022-12-17T05:46:13;102417.59;;;-0.81;89.44
58102;BME280;52034;51.926;6.320;2022-12-17T05:47:32;102421.84;;;-0.82;89.88
58102;BME280;52034;51.926;6.320;2022-12-17T05:48:51;102425.16;;;-0.83;88.97
58102;BME280;52034;51.926;6.320;2022-12-17T05:50:10;102418.78;;;-0.78;89.06
58102;BME280;52034;51.926;6.320;2022-12-17T05:51:30;102425.34;;;-0.99;90.07
58102;BME280;52034;51.926;6.320;2022-12-17T05:52:49;102428.38;;;-1.03;90.88
58102;BME280;52034;51.926;6.320;2022-12-17T05:54:08;102426.09;;;-0.91;89.63
58102;BME280;52034;51.926;6.320;2022-12-17T05:55:27;102431.25;;;-1.09;90.26
58102;BME280;52034;51.926;6.320;2022-12-17T05:56:46;102421.19;;;-1.25;90.74
58102;BME280;52034;51.926;6.320;2022-12-17T05:58:08;102426.16;;;-1.26;91.75
58102;BME280;52034;51.926;6.320;2022-12-17T05:59:27;102428.13;;;-1.32;91.04
58102;BME280;52034;51.926;6.320;2022-12-17T06:00:46;102422.84;;;-1.34;91.49
58102;BME280;52034;51.926;6.320;2022-12-17T06:02:05;102423.13;;;-1.22;92.04
58102;BME280;52034;51.926;6.320;2022-12-17T06:03:25;102427.19;;;-1.15;90.85
58102;BME280;52034;51.926;6.320;2022-12-17T06:04:44;102429.13;;;-1.04;91.37
58102;BME280;52034;51.926;6.320;2022-12-17T06:06:03;102426.13;;;-1.09;90.26
58102;BME280;52034;51.926;6.320;2022-12-17T06:07:22;102431.97;;;-0.92;90.97
58102;BME280;52034;51.926;6.320;2022-12-17T06:08:41;102427.84;;;-0.81;90.59
58102;BME280;52034;51.926;6.320;2022-12-17T06:10:00;102433.16;;;-0.80;89.53
58102;BME280;52034;51.926;6.320;2022-12-17T06:11:19;102435.59;;;-0.90;89.82
58102;BME280;52034;51.926;6.320;2022-12-17T06:12:56;102442.56;;;-1.07;89.95
58102;BME280;52034;51.926;6.320;2022-12-17T06:14:15;102438.06;;;-1.09;90.73
58102;BME280;52034;51.926;6.320;2022-12-17T06:15:34;102433.22;;;-1.15;90.88
58102;BME280;52034;51.926;6.320;2022-12-17T06:16:54;102432.47;;;-1.23;91.95
58102;BME280;52034;51.926;6.320;2022-12-17T06:18:13;102430.97;;;-1.29;91.83
58102;BME280;52034;51.926;6.320;2022-12-17T06:19:32;102437.34;;;-1.35;91.75
58102;BME280;52034;51.926;6.320;2022-12-17T06:20:51;102437.03;;;-1.38;92.75
58102;BME280;52034;51.926;6.320;2022-12-17T06:22:10;102434.16;;;-1.41;91.96
58102;BME280;52034;51.926;6.320;2022-12-17T06:23:29;102437.75;;;-1.39;92.61
58102;BME280;52034;51.926;6.320;2022-12-17T06:24:48;102444.44;;;-1.32;91.97
58102;BME280;52034;51.926;6.320;2022-12-17T06:26:07;102442.75;;;-1.31;92.42
58102;BME280;52034;51.926;6.320;2022-12-17T06:27:26;102445.63;;;-1.37;92.36
58102;BME280;52034;51.926;6.320;2022-12-17T06:28:45;102453.31;;;-1.46;92.99
58102;BME280;52034;51.926;6.320;2022-12-17T06:30:05;102451.97;;;-1.42;92.26
58102;BME280;52034;51.926;6.320;2022-12-17T06:31:24;102458.59;;;-1.36;92.08
58102;BME280;52034;51.926;6.320;2022-12-17T06:32:43;102456.31;;;-1.32;92.67
58102;BME280;52034;51.926;6.320;2022-12-17T06:34:02;102452.13;;;-1.32;92.26
58102;BME280;52034;51.926;6.320;2022-12-17T06:35:21;102448.63;;;-1.32;91.66
58102;BME280;52034;51.926;6.320;2022-12-17T06:36:40;102458.00;;;-1.33;91.74
58102;BME280;52034;51.926;6.320;2022-12-17T06:38:01;102460.41;;;-1.35;92.55
58102;BME280;52034;51.926;6.320;2022-12-17T06:39:20;102460.25;;;-1.27;92.46
58102;BME280;52034;51.926;6.320;2022-12-17T06:40:39;102458.91;;;-1.24;91.92
58102;BME280;52034;51.926;6.320;2022-12-17T06:41:58;102467.03;;;-1.28;91.68
58102;BME280;52034;51.926;6.320;2022-12-17T06:43:17;102464.16;;;-1.31;92.23
58102;BME280;52034;51.926;6.320;2022-12-17T06:44:36;102464.03;;;-1.41;92.29
58102;BME280;52034;51.926;6.320;2022-12-17T06:45:55;102466.75;;;-1.40;92.38
58102;BME280;52034;51.926;6.320;2022-12-17T06:47:14;102467.63;;;-1.39;92.71
58102;BME280;52034;51.926;6.320;2022-12-17T06:48:33;102466.41;;;-1.43;92.10
58102;BME280;52034;51.926;6.320;2022-12-17T06:49:53;102476.22;;;-1.30;92.25
58102;BME280;52034;51.926;6.320;2022-12-17T06:51:12;102468.84;;;-1.18;91.78
58102;BME280;52034;51.926;6.320;2022-12-17T06:52:31;102469.00;;;-1.25;91.17
58102;BME280;52034;51.926;6.320;2022-12-17T06:53:50;102474.41;;;-1.31;91.63
58102;BME280;52034;51.926;6.320;2022-12-17T06:55:09;102468.53;;;-1.21;91.23
58102;BME280;52034;51.926;6.320;2022-12-17T06:56:28;102479.09;;;-1.09;91.81
58102;BME280;52034;51.926;6.320;2022-12-17T06:57:47;102462.38;;;-1.41;91.60
58102;BME280;52034;51.926;6.320;2022-12-17T06:59:06;102466.59;;;-1.41;91.20
58102;BME280;52034;51.926;6.320;2022-12-17T07:00:25;102481.34;;;-1.39;92.37
58102;BME280;52034;51.926;6.320;2022-12-17T07:01:44;102472.59;;;-1.49;91.64
58102;BME280;52034;51.926;6.320;2022-12-17T07:03:03;102483.47;;;-1.43;92.93